Tuesday, August 21, 2018, 9:55 AM EDT
Back to Local

KDAW, Skyhaven Airport

Location: Rochester, NH, United States Lat: 43.283
Local Time: 9:55 AM EDT (13:55 GMT) Lon: -70.917
Time Zone: US/Eastern Elev: 321 ft

Show me the last for .
Show Decoded

2018-08-21 08:51 METAR KDAW 211251Z AUTO 00000KT 10SM CLR 18/16 A3016 RMK AO2 SLP211 T01830161 =
2018-08-21 07:51 METAR KDAW 211151Z AUTO 32004KT 10SM CLR 15/14 A3017 RMK AO2 SLP212 T01500144
                 10150 20117 51008 =
2018-08-21 06:51 METAR KDAW 211051Z AUTO 32004KT 10SM CLR 12/12 A3016 RMK AO2 SLP210 T01220122 =
2018-08-21 05:51 METAR KDAW 210951Z AUTO 00000KT 10SM SCT001 12/12 A3015 RMK AO2 SLP207 T01170117
                 =
2018-08-21 04:51 METAR KDAW 210851Z AUTO 32004KT 10SM CLR 12/12 A3014 RMK AO2 SLP204 T01170117
                 58012 =
2018-08-21 03:51 METAR KDAW 210751Z AUTO 00000KT 10SM CLR 12/12 A3015 RMK AO2 SLP208 T01220122 =
2018-08-21 02:51 METAR KDAW 210651Z AUTO 32004KT 10SM CLR 13/12 A3017 RMK AO2 SLP213 T01280122 =
2018-08-21 00:51 METAR KDAW 210451Z AUTO 31004KT 10SM CLR 14/14 A3018 RMK AO2 SLP216 T01390139
                 402390133 TSNO =
2018-08-20 23:51 METAR KDAW 210351Z AUTO 00000KT 10SM CLR 14/14 A3019 RMK AO2 SLP218 T01440144 =
2018-08-20 22:51 METAR KDAW 210251Z AUTO 31003KT 10SM CLR 14/14 A3019 RMK AO2 SLP219 T01440139
                 50004 =
2018-08-20 21:51 METAR KDAW 210151Z AUTO 00000KT 10SM CLR 16/15 A3020 RMK AO2 SLP223 T01610150 =
2018-08-20 20:51 METAR KDAW 210051Z AUTO 00000KT 10SM CLR 17/16 A3019 RMK AO2 SLP220 T01720156 =
2018-08-20 19:51 METAR KDAW 202351Z AUTO 00000KT 10SM CLR 18/16 A3017 RMK AO2 SLP215 T01830156
                 10239 20183 53000 =
2018-08-20 18:51 METAR KDAW 202251Z AUTO 10003KT 10SM CLR 20/16 A3017 RMK AO2 SLP214 T02000156 =
2018-08-20 17:51 METAR KDAW 202151Z AUTO 12006KT 10SM CLR 22/16 A3017 RMK AO2 SLP211 T02170161 =
2018-08-20 16:51 METAR KDAW 202051Z AUTO 11005KT 10SM CLR 22/16 A3017 RMK AO2 SLP214 T02220156
                 55002 =
2018-08-20 15:51 METAR KDAW 201951Z AUTO 12006KT 10SM CLR 23/14 A3017 RMK AO2 SLP212 T02280144 =
2018-08-20 14:51 METAR KDAW 201851Z AUTO 10008G14KT 10SM CLR 23/16 A3017 RMK AO2 SLP212 T02330156
                 =
2018-08-20 13:51 METAR KDAW 201751Z AUTO 10009G16KT 10SM CLR 23/16 A3018 RMK AO2 SLP216 T02330156
                 10239 20178 55009 =
2018-08-20 12:51 METAR KDAW 201651Z AUTO VRB04KT 10SM CLR 23/16 A3018 RMK AO2 SLP214 T02330156 =
2018-08-20 11:51 METAR KDAW 201551Z AUTO VRB06KT 10SM BKN039 BKN047 23/16 A3019 RMK AO2 SLP221
                 T02280156 =
2018-08-20 10:51 METAR KDAW 201451Z AUTO 10005KT 10SM FEW031 22/16 A3021 RMK AO2 SLP225 T02220161
                 53003 =

Support USWX by starting your Amazon purchase here.